createdAt,value
2023-04-25T00:00:17.934Z,6.22
2023-04-25T00:02:44.736Z,6.18
2023-04-25T00:05:12.112Z,6.14
2023-04-25T00:07:39.484Z,6.10
2023-04-25T00:10:06.898Z,6.11
2023-04-25T00:12:34.586Z,6.08
2023-04-25T00:15:01.405Z,6.07
2023-04-25T00:17:28.233Z,6.07
2023-04-25T00:19:55.008Z,6.05
2023-04-25T00:22:22.177Z,6.02
2023-04-25T00:24:48.821Z,5.99
2023-04-25T00:27:15.530Z,5.95
2023-04-25T00:29:42.208Z,5.95
2023-04-25T00:32:08.842Z,5.97
2023-04-25T00:34:35.452Z,5.98
2023-04-25T00:37:04.932Z,5.94
2023-04-25T00:39:31.705Z,5.89
2023-04-25T00:41:58.986Z,5.84
2023-04-25T00:44:26.063Z,5.82
2023-04-25T00:46:53.677Z,5.82
2023-04-25T00:49:20.460Z,5.81
2023-04-25T00:51:47.155Z,5.82
2023-04-25T00:54:15.289Z,5.78
2023-04-25T00:56:42.631Z,5.78
2023-04-25T00:59:10.668Z,5.78
2023-04-25T01:01:38.838Z,5.72
2023-04-25T01:04:05.855Z,5.70
2023-04-25T01:06:33.021Z,5.69
2023-04-25T01:09:00.703Z,5.67
2023-04-25T01:11:27.525Z,5.66
2023-04-25T01:13:54.262Z,5.65
2023-04-25T01:16:21.447Z,5.65
2023-04-25T01:18:49.028Z,5.65
2023-04-25T01:21:15.893Z,5.65
2023-04-25T01:23:43.749Z,5.59
2023-04-25T01:26:12.732Z,5.54
2023-04-25T01:28:42.351Z,5.52
2023-04-25T01:31:10.034Z,5.45
2023-04-25T01:33:36.895Z,5.43
2023-04-25T01:36:03.918Z,5.42
2023-04-25T01:38:30.946Z,5.39
2023-04-25T01:40:57.691Z,5.36
2023-04-25T01:43:24.588Z,5.34
2023-04-25T01:45:51.729Z,5.35
2023-04-25T01:48:18.744Z,5.32
2023-04-25T01:50:46.879Z,5.28
2023-04-25T01:53:14.729Z,5.24
2023-04-25T01:55:41.484Z,5.25
2023-04-25T01:58:13.303Z,5.28
2023-04-25T02:00:41.787Z,5.27
2023-04-25T02:03:09.637Z,5.27
2023-04-25T02:05:40.312Z,5.26
2023-04-25T02:08:09.200Z,5.22
2023-04-25T02:10:36.205Z,5.19
2023-04-25T02:13:03.430Z,5.17
2023-04-25T02:15:30.085Z,5.15
2023-04-25T02:17:57.019Z,5.15
2023-04-25T02:20:25.569Z,5.13
2023-04-25T02:22:52.760Z,5.09
2023-04-25T02:25:21.132Z,5.09
2023-04-25T02:27:48.513Z,5.07
2023-04-25T02:30:15.351Z,5.07
2023-04-25T02:32:42.546Z,5.06
2023-04-25T02:35:09.831Z,5.03
2023-04-25T02:37:38.961Z,5.00
2023-04-25T02:40:06.650Z,4.97
2023-04-25T02:42:33.548Z,4.96
2023-04-25T02:45:02.214Z,4.97
2023-04-25T02:47:29.026Z,4.98
2023-04-25T02:49:55.931Z,5.01
2023-04-25T02:52:22.639Z,5.06
2023-04-25T02:54:49.435Z,5.10
2023-04-25T02:57:16.389Z,5.11
2023-04-25T02:59:43.062Z,5.10
2023-04-25T03:02:09.944Z,5.12
2023-04-25T03:04:36.844Z,5.10
2023-04-25T03:07:03.610Z,5.10
2023-04-25T03:09:30.357Z,5.12
2023-04-25T03:11:56.976Z,5.08
2023-04-25T03:14:23.581Z,5.08
2023-04-25T03:16:50.252Z,5.10
2023-04-25T03:19:19.708Z,5.11
2023-04-25T03:21:46.432Z,5.10
2023-04-25T03:24:13.501Z,5.05
2023-04-25T03:26:40.140Z,5.00
2023-04-25T03:29:06.817Z,4.93
2023-04-25T03:31:33.613Z,4.88
2023-04-25T03:34:00.258Z,4.82
2023-04-25T03:36:29.147Z,4.75
2023-04-25T03:38:55.805Z,4.70
2023-04-25T03:41:22.452Z,4.65
2023-04-25T03:43:49.240Z,4.59
2023-04-25T03:46:16.162Z,4.56
2023-04-25T03:48:42.842Z,4.57
2023-04-25T03:51:09.470Z,4.56
2023-04-25T03:53:37.174Z,4.55
2023-04-25T03:56:03.934Z,4.50
2023-04-25T03:58:30.578Z,4.47
2023-04-25T04:00:57.283Z,4.45
2023-04-25T04:03:24.250Z,4.43
2023-04-25T04:05:51.669Z,4.39
2023-04-25T04:08:18.415Z,4.37
2023-04-25T04:10:45.052Z,4.34
2023-04-25T04:13:11.685Z,4.31
2023-04-25T04:15:38.404Z,4.29
2023-04-25T04:18:05.228Z,4.28
2023-04-25T04:20:31.926Z,4.27
2023-04-25T04:22:58.542Z,4.26
2023-04-25T04:25:25.653Z,4.23
2023-04-25T04:27:56.938Z,4.26
2023-04-25T04:30:30.465Z,4.32
2023-04-25T04:32:57.656Z,4.32
2023-04-25T04:35:25.027Z,4.28
2023-04-25T04:37:51.842Z,4.26
2023-04-25T04:40:18.979Z,4.18
2023-04-25T04:42:49.166Z,4.11
2023-04-25T04:45:17.267Z,4.05
2023-04-25T04:47:44.137Z,4.05
2023-04-25T04:50:11.515Z,4.08
2023-04-25T04:52:39.176Z,4.10
2023-04-25T04:55:06.979Z,4.11
2023-04-25T04:57:34.078Z,4.11
2023-04-25T05:00:00.750Z,4.09
2023-04-25T05:02:28.113Z,4.08
2023-04-25T05:04:55.013Z,4.03
2023-04-25T05:07:21.883Z,3.91
2023-04-25T05:09:48.494Z,3.82
2023-04-25T05:12:15.238Z,3.78
2023-04-25T05:14:41.937Z,3.72
2023-04-25T05:17:09.640Z,3.73
2023-04-25T05:19:36.433Z,3.78
2023-04-25T05:22:03.764Z,3.85
2023-04-25T05:24:31.551Z,3.88
2023-04-25T05:26:58.608Z,3.93
2023-04-25T05:29:25.341Z,3.93
2023-04-25T05:31:52.065Z,3.95
2023-04-25T05:34:18.808Z,3.95
2023-04-25T05:36:45.493Z,3.97
2023-04-25T05:39:12.324Z,3.97
2023-04-25T05:41:39.078Z,3.91
2023-04-25T05:44:05.830Z,3.84
2023-04-25T05:46:32.689Z,3.85
2023-04-25T05:48:59.510Z,3.90
2023-04-25T05:51:27.220Z,3.96
2023-04-25T05:53:54.107Z,3.98
2023-04-25T05:56:20.924Z,4.03
2023-04-25T05:58:48.070Z,4.08
2023-04-25T06:01:15.226Z,4.11
2023-04-25T06:03:44.136Z,4.11
2023-04-25T06:06:11.024Z,4.13
2023-04-25T06:08:38.765Z,4.13
2023-04-25T06:11:05.880Z,4.15
2023-04-25T06:13:32.747Z,4.18
2023-04-25T06:15:59.407Z,4.21
2023-04-25T06:18:26.153Z,4.24
2023-04-25T06:20:52.835Z,4.31
2023-04-25T06:23:19.505Z,4.37
2023-04-25T06:25:46.153Z,4.38
2023-04-25T06:28:12.784Z,4.40
2023-04-25T06:30:39.452Z,4.40
2023-04-25T06:33:06.188Z,4.42
2023-04-25T06:35:32.969Z,4.47
2023-04-25T06:37:59.582Z,4.52
2023-04-25T06:40:26.215Z,4.57
2023-04-25T06:42:53.086Z,4.59
2023-04-25T06:45:19.734Z,4.61
2023-04-25T06:47:46.362Z,4.65
2023-04-25T06:50:13.149Z,4.70
2023-04-25T06:52:39.737Z,4.76
2023-04-25T06:55:07.008Z,4.82
2023-04-25T06:57:33.762Z,4.88
2023-04-25T07:00:02.287Z,4.92
2023-04-25T07:02:29.652Z,4.98
2023-04-25T07:05:00.692Z,5.04
2023-04-25T07:07:28.039Z,5.07
2023-04-25T07:09:54.661Z,5.15
2023-04-25T07:12:21.228Z,5.24
2023-04-25T07:14:47.934Z,5.33
2023-04-25T07:17:14.608Z,5.44
2023-04-25T07:19:41.362Z,5.57
2023-04-25T07:22:08.093Z,5.65
2023-04-25T07:24:34.777Z,5.76
2023-04-25T07:27:02.340Z,5.88
2023-04-25T07:29:29.145Z,5.99
2023-04-25T07:31:55.939Z,6.08
2023-04-25T07:34:22.594Z,6.11
2023-04-25T07:36:49.204Z,6.14
2023-04-25T07:39:15.948Z,6.18
2023-04-25T07:41:42.642Z,6.21
2023-04-25T07:44:09.291Z,6.27
2023-04-25T07:46:36.030Z,6.33
2023-04-25T07:49:03.105Z,6.42
2023-04-25T07:51:29.784Z,6.48
2023-04-25T07:53:56.397Z,6.60
2023-04-25T07:56:23.005Z,6.79
2023-04-25T07:58:49.985Z,6.91
2023-04-25T08:01:17.677Z,7.06
2023-04-25T08:03:44.662Z,7.19
2023-04-25T08:06:12.159Z,7.34
2023-04-25T08:08:39.132Z,7.53
2023-04-25T08:11:07.037Z,7.68
2023-04-25T08:13:33.624Z,7.85
2023-04-25T08:16:00.302Z,8.01
2023-04-25T08:18:27.183Z,8.14
2023-04-25T08:20:53.932Z,8.44
2023-04-25T08:23:20.698Z,8.91
2023-04-25T08:25:47.537Z,9.57
2023-04-25T08:28:16.176Z,10.36
2023-04-25T08:30:42.826Z,11.17
2023-04-25T08:33:09.613Z,12.05
2023-04-25T08:35:36.683Z,12.88
2023-04-25T08:38:03.376Z,13.64
2023-04-25T08:40:31.283Z,14.39
2023-04-25T08:42:59.172Z,14.64
2023-04-25T08:45:28.934Z,14.99
2023-04-25T08:47:58.017Z,15.50
2023-04-25T08:50:26.003Z,15.93
2023-04-25T08:52:55.239Z,15.72
2023-04-25T08:55:23.051Z,14.66
2023-04-25T08:57:51.570Z,13.74
2023-04-25T09:00:20.040Z,14.20
2023-04-25T09:02:48.397Z,13.91
2023-04-25T09:05:15.687Z,13.34
2023-04-25T09:07:42.446Z,12.76
2023-04-25T09:10:09.691Z,12.20
2023-04-25T09:12:37.437Z,11.71
2023-04-25T09:15:09.824Z,11.67
2023-04-25T09:17:41.222Z,12.14
2023-04-25T09:20:13.430Z,11.86
2023-04-25T09:22:40.285Z,11.38
2023-04-25T09:25:12.196Z,11.19
2023-04-25T09:27:52.108Z,11.10
2023-04-25T09:30:19.322Z,11.28
2023-04-25T09:32:46.770Z,12.11
2023-04-25T09:35:24.652Z,13.21
2023-04-25T09:37:51.699Z,14.12
2023-04-25T09:40:19.583Z,15.01
2023-04-25T09:42:46.313Z,15.96
2023-04-25T09:45:16.150Z,16.57
2023-04-25T09:47:45.099Z,17.12
2023-04-25T09:50:16.929Z,17.66
2023-04-25T09:52:44.197Z,17.09
2023-04-25T09:55:10.877Z,16.23
2023-04-25T09:57:40.926Z,15.65
2023-04-25T10:00:13.143Z,14.70
2023-04-25T10:02:43.639Z,14.26
2023-04-25T10:05:11.864Z,15.16
2023-04-25T10:07:39.868Z,15.31
2023-04-25T10:10:07.189Z,15.00
2023-04-25T10:12:34.657Z,15.08
2023-04-25T10:15:02.517Z,14.66
2023-04-25T10:17:29.491Z,13.83
2023-04-25T10:19:57.401Z,13.08
2023-04-25T10:22:29.923Z,12.40
2023-04-25T10:24:57.867Z,11.81
2023-04-25T10:27:24.741Z,11.38
2023-04-25T10:30:05.540Z,11.11
2023-04-25T10:32:34.568Z,10.99
2023-04-25T10:35:28.184Z,11.11
2023-04-25T10:38:10.183Z,11.41
2023-04-25T10:40:37.836Z,11.59
2023-04-25T10:43:50.217Z,11.71
2023-04-25T10:46:24.213Z,11.81
2023-04-25T10:48:52.189Z,11.88
2023-04-25T10:51:19.145Z,11.74
2023-04-25T10:53:47.188Z,11.67
2023-04-25T10:56:24.546Z,11.73
2023-04-25T10:58:52.289Z,11.89
2023-04-25T11:01:22.544Z,12.09
2023-04-25T11:03:51.627Z,12.30
2023-04-25T11:06:47.248Z,12.57
2023-04-25T11:09:14.609Z,12.65
2023-04-25T11:11:41.425Z,12.73
2023-04-25T11:14:08.385Z,12.72
2023-04-25T11:16:35.080Z,12.58
2023-04-25T11:19:01.768Z,12.56
2023-04-25T11:21:28.988Z,12.59
2023-04-25T11:23:57.513Z,12.55
2023-04-25T11:26:26.020Z,12.51
2023-04-25T11:28:52.697Z,12.43
2023-04-25T11:31:22.824Z,12.40
2023-04-25T11:33:49.778Z,12.28
2023-04-25T11:36:16.615Z,12.23
2023-04-25T11:38:43.411Z,12.29
2023-04-25T11:41:10.059Z,12.39
2023-04-25T11:43:36.850Z,12.38
2023-04-25T11:46:08.178Z,12.36
2023-04-25T11:48:44.642Z,12.26
2023-04-25T11:51:11.418Z,12.12
2023-04-25T11:53:42.913Z,12.09
2023-04-25T11:56:13.042Z,12.10
2023-04-25T11:58:56.579Z,11.98
2023-04-25T12:01:34.546Z,11.92
2023-04-25T12:04:17.715Z,11.82
2023-04-25T12:06:48.655Z,11.70
2023-04-25T12:09:18.965Z,11.81
2023-04-25T12:11:53.588Z,11.91
2023-04-25T12:14:30.436Z,12.06
2023-04-25T12:16:58.971Z,12.23
2023-04-25T12:19:27.034Z,12.38
2023-04-25T12:21:58.749Z,12.49
2023-04-25T12:24:28.793Z,12.46
2023-04-25T12:27:09.417Z,12.49
2023-04-25T12:29:49.223Z,12.65
2023-04-25T12:32:18.011Z,12.80
2023-04-25T12:34:44.820Z,12.88
2023-04-25T12:37:11.704Z,12.96
2023-04-25T12:39:38.602Z,13.05
2023-04-25T12:42:07.631Z,13.01
2023-04-25T12:44:36.134Z,12.92
2023-04-25T12:47:04.357Z,12.91
2023-04-25T12:49:31.292Z,12.95
2023-04-25T12:51:58.120Z,13.04
2023-04-25T12:54:24.820Z,13.16
2023-04-25T12:56:52.106Z,13.12
2023-04-25T12:59:18.991Z,13.07
2023-04-25T13:01:46.625Z,12.95
2023-04-25T13:04:13.512Z,12.82
2023-04-25T13:06:40.285Z,12.79
2023-04-25T13:09:07.894Z,12.79
2023-04-25T13:11:34.548Z,12.90
2023-04-25T13:14:02.061Z,13.04
2023-04-25T13:16:28.855Z,13.23
2023-04-25T13:18:57.281Z,13.27
2023-04-25T13:21:24.379Z,13.25
2023-04-25T13:23:52.235Z,13.12
2023-04-25T13:26:19.234Z,12.98
2023-04-25T13:28:45.913Z,12.83
2023-04-25T13:31:14.630Z,12.76
2023-04-25T13:33:41.245Z,12.65
2023-04-25T13:36:08.063Z,12.73
2023-04-25T13:38:36.039Z,12.90
2023-04-25T13:41:02.729Z,12.86
2023-04-25T13:43:29.546Z,12.81
2023-04-25T13:45:56.341Z,12.78
2023-04-25T13:48:23.727Z,12.71
2023-04-25T13:50:50.424Z,12.68
2023-04-25T13:53:17.102Z,12.68
2023-04-25T13:55:43.788Z,12.75
2023-04-25T13:58:11.285Z,12.79
2023-04-25T14:00:40.413Z,12.77
2023-04-25T14:03:11.038Z,12.79
2023-04-25T14:05:41.187Z,13.08
2023-04-25T14:08:09.733Z,13.40
2023-04-25T14:10:37.510Z,13.68
2023-04-25T14:13:05.668Z,13.62
2023-04-25T14:15:33.598Z,13.50
2023-04-25T14:18:01.196Z,13.11
2023-04-25T14:20:28.247Z,12.95
2023-04-25T14:22:57.095Z,12.78
2023-04-25T14:25:24.365Z,12.77
2023-04-25T14:27:51.362Z,12.71
2023-04-25T14:30:20.210Z,12.60
2023-04-25T14:32:47.372Z,12.42
2023-04-25T14:35:14.213Z,12.38
2023-04-25T14:37:41.035Z,12.40
2023-04-25T14:40:11.504Z,12.43
2023-04-25T14:42:38.520Z,12.50
2023-04-25T14:45:07.686Z,12.51
2023-04-25T14:47:34.644Z,12.55
2023-04-25T14:50:02.702Z,12.53
2023-04-25T14:52:29.502Z,12.53
2023-04-25T14:54:56.481Z,12.51
2023-04-25T14:57:23.195Z,12.51
2023-04-25T14:59:49.886Z,12.57
2023-04-25T15:02:16.915Z,12.66
2023-04-25T15:04:43.824Z,12.70
2023-04-25T15:07:11.267Z,12.65
2023-04-25T15:09:37.948Z,12.58
2023-04-25T15:12:04.928Z,12.47
2023-04-25T15:14:31.753Z,12.39
2023-04-25T15:16:58.432Z,12.36
2023-04-25T15:19:25.250Z,12.35
2023-04-25T15:21:51.980Z,12.34
2023-04-25T15:24:19.182Z,12.30
2023-04-25T15:26:46.875Z,12.20
2023-04-25T15:29:13.606Z,12.09
2023-04-25T15:31:40.363Z,11.97
2023-04-25T15:34:07.264Z,11.90
2023-04-25T15:36:34.019Z,11.85
2023-04-25T15:39:00.652Z,11.83
2023-04-25T15:41:27.396Z,11.70
2023-04-25T15:43:55.021Z,11.55
2023-04-25T15:46:24.410Z,11.38
2023-04-25T15:48:51.098Z,11.26
2023-04-25T15:51:17.818Z,11.19
2023-04-25T15:53:44.577Z,11.16
2023-04-25T15:56:11.364Z,11.16
2023-04-25T15:58:38.124Z,11.20
2023-04-25T16:01:05.174Z,11.11
2023-04-25T16:03:34.547Z,11.05
2023-04-25T16:06:03.231Z,11.00
2023-04-25T16:08:30.029Z,11.07
2023-04-25T16:10:57.446Z,11.09
2023-04-25T16:13:24.106Z,11.13
2023-04-25T16:15:50.881Z,11.17
2023-04-25T16:18:18.083Z,11.19
2023-04-25T16:20:45.124Z,11.20
2023-04-25T16:23:11.831Z,11.24
2023-04-25T16:25:38.527Z,11.24
2023-04-25T16:28:05.553Z,11.21
2023-04-25T16:30:32.314Z,11.22
2023-04-25T16:32:59.064Z,11.16
2023-04-25T16:35:25.824Z,11.15
2023-04-25T16:37:52.510Z,11.15
2023-04-25T16:40:19.277Z,11.08
2023-04-25T16:42:46.255Z,11.10
2023-04-25T16:45:14.106Z,11.11
2023-04-25T16:47:40.899Z,11.10
2023-04-25T16:50:08.194Z,11.12
2023-04-25T16:52:34.842Z,11.13
2023-04-25T16:55:01.541Z,11.05
2023-04-25T16:57:28.401Z,11.02
2023-04-25T16:59:55.030Z,10.97
2023-04-25T17:02:21.783Z,10.96
2023-04-25T17:04:48.659Z,10.97
2023-04-25T17:07:16.048Z,10.92
2023-04-25T17:09:42.666Z,10.88
2023-04-25T17:12:09.808Z,10.89
2023-04-25T17:14:37.280Z,10.92
2023-04-25T17:17:04.050Z,10.93
2023-04-25T17:19:31.543Z,10.87
2023-04-25T17:21:58.186Z,10.84
2023-04-25T17:24:24.993Z,10.93
2023-04-25T17:26:51.636Z,10.92
2023-04-25T17:29:19.417Z,10.91
2023-04-25T17:31:46.666Z,10.93
2023-04-25T17:34:17.997Z,10.88
2023-04-25T17:36:45.720Z,10.78
2023-04-25T17:39:17.396Z,10.69
2023-04-25T17:41:44.832Z,10.63
2023-04-25T17:44:11.685Z,10.58
2023-04-25T17:46:38.416Z,10.53
2023-04-25T17:49:05.196Z,10.54
2023-04-25T17:51:32.629Z,10.53
2023-04-25T17:53:59.259Z,10.54
2023-04-25T17:56:27.505Z,10.51
2023-04-25T17:58:54.952Z,10.41
2023-04-25T18:01:22.518Z,10.33
2023-04-25T18:03:50.341Z,10.29
2023-04-25T18:06:18.356Z,10.27
2023-04-25T18:08:45.509Z,10.28
2023-04-25T18:11:12.338Z,10.27
2023-04-25T18:13:39.760Z,10.26
2023-04-25T18:16:07.412Z,10.21
2023-04-25T18:18:36.215Z,10.21
2023-04-25T18:21:05.336Z,10.20
2023-04-25T18:23:34.331Z,10.14
2023-04-25T18:26:02.717Z,10.08
2023-04-25T18:28:29.685Z,10.02
2023-04-25T18:30:56.896Z,9.97
2023-04-25T18:33:23.741Z,9.93
2023-04-25T18:35:58.827Z,9.90
2023-04-25T18:41:06.132Z,9.78
2023-04-25T18:43:44.387Z,9.75
2023-04-25T18:46:11.203Z,9.78
2023-04-25T18:48:38.036Z,9.76
2023-04-25T18:51:05.658Z,9.69
2023-04-25T18:53:32.714Z,9.61
2023-04-25T18:56:01.149Z,9.61
2023-04-25T18:58:28.355Z,9.61
2023-04-25T19:00:56.528Z,9.58
2023-04-25T19:03:23.742Z,9.58
2023-04-25T19:05:50.768Z,9.59
2023-04-25T19:08:17.883Z,9.56
2023-04-25T19:10:44.578Z,9.53
2023-04-25T19:13:11.266Z,9.49
2023-04-25T19:15:37.981Z,9.44
2023-04-25T19:18:04.920Z,9.43
2023-04-25T19:20:33.218Z,9.41
2023-04-25T19:22:59.825Z,9.36
2023-04-25T19:25:26.528Z,9.35
2023-04-25T19:27:53.403Z,9.38
2023-04-25T19:30:20.136Z,9.38
2023-04-25T19:32:46.864Z,9.34
2023-04-25T19:35:13.544Z,9.33
2023-04-25T19:37:46.327Z,9.31
2023-04-25T19:40:19.720Z,9.28
2023-04-25T19:42:49.001Z,9.25
2023-04-25T19:45:15.714Z,9.26
2023-04-25T19:47:42.662Z,9.26
2023-04-25T19:50:10.688Z,9.24
2023-04-25T19:52:38.420Z,9.21
2023-04-25T19:55:08.949Z,9.18
2023-04-25T19:57:38.167Z,9.18
2023-04-25T20:00:10.698Z,9.20
2023-04-25T20:02:37.542Z,9.17
2023-04-25T20:05:09.165Z,9.15
2023-04-25T20:07:35.970Z,9.11
2023-04-25T20:10:04.045Z,9.10
2023-04-25T20:12:32.233Z,9.06
2023-04-25T20:14:58.964Z,9.07
2023-04-25T20:17:26.006Z,9.09
2023-04-25T20:19:52.971Z,9.10
2023-04-25T20:22:19.747Z,9.09
2023-04-25T20:24:46.662Z,9.04
2023-04-25T20:27:13.273Z,9.03
2023-04-25T20:29:40.001Z,8.98
2023-04-25T20:32:06.892Z,8.97
2023-04-25T20:34:33.679Z,8.93
2023-04-25T20:37:03.049Z,8.92
2023-04-25T20:39:29.957Z,8.92
2023-04-25T20:41:57.051Z,8.95
2023-04-25T20:44:25.227Z,8.98
2023-04-25T20:46:52.175Z,8.98
2023-04-25T20:49:19.097Z,8.98
2023-04-25T20:51:45.908Z,8.92
2023-04-25T20:54:13.481Z,8.92
2023-04-25T20:56:40.446Z,8.89
2023-04-25T20:59:07.130Z,8.88
2023-04-25T21:01:34.640Z,8.88
2023-04-25T21:04:01.896Z,8.88
2023-04-25T21:06:29.517Z,8.88
2023-04-25T21:08:56.171Z,8.86
2023-04-25T21:11:23.608Z,8.83
2023-04-25T21:13:50.719Z,8.82
2023-04-25T21:16:17.414Z,8.80
2023-04-25T21:18:44.336Z,8.80
2023-04-25T21:21:11.108Z,8.81
2023-04-25T21:23:37.834Z,8.81
2023-04-25T21:26:04.522Z,8.78
2023-04-25T21:28:31.189Z,8.78
2023-04-25T21:30:57.970Z,8.79
2023-04-25T21:33:24.609Z,8.78
2023-04-25T21:35:51.968Z,8.78
2023-04-25T21:38:18.878Z,8.74
2023-04-25T21:40:45.994Z,8.74
2023-04-25T21:43:13.220Z,8.72
2023-04-25T21:45:51.712Z,8.71
2023-04-25T21:48:26.736Z,8.71
2023-04-25T21:50:53.544Z,8.70
2023-04-25T21:53:20.219Z,8.70
2023-04-25T21:55:47.207Z,8.71
2023-04-25T21:58:14.202Z,8.71
2023-04-25T22:00:42.643Z,8.72
2023-04-25T22:03:09.502Z,8.70
2023-04-25T22:05:37.074Z,8.69
2023-04-25T22:08:03.838Z,8.69
2023-04-25T22:10:30.601Z,8.64
2023-04-25T22:12:58.446Z,8.63
2023-04-25T22:15:25.414Z,8.61
2023-04-25T22:17:55.230Z,8.64
2023-04-25T22:20:26.195Z,8.66
2023-04-25T22:22:54.541Z,8.64
2023-04-25T22:25:22.112Z,8.62
2023-04-25T22:27:49.291Z,8.62
2023-04-25T22:30:16.093Z,8.63
2023-04-25T22:32:43.400Z,8.66
2023-04-25T22:35:10.819Z,8.66
2023-04-25T22:37:37.824Z,8.65
2023-04-25T22:40:09.175Z,8.66
2023-04-25T22:42:46.154Z,8.64
2023-04-25T22:45:13.005Z,8.61
2023-04-25T22:47:40.300Z,8.62
2023-04-25T22:50:13.205Z,8.62
2023-04-25T22:52:40.602Z,8.62
2023-04-25T22:55:07.702Z,8.62
2023-04-25T22:57:37.507Z,8.60
2023-04-25T23:00:12.329Z,8.60
2023-04-25T23:02:39.886Z,8.59
2023-04-25T23:05:07.210Z,8.60
2023-04-25T23:07:34.981Z,8.57
2023-04-25T23:10:01.841Z,8.54
2023-04-25T23:12:28.575Z,8.54
2023-04-25T23:14:55.218Z,8.54
2023-04-25T23:17:22.434Z,8.53
2023-04-25T23:19:49.124Z,8.53
2023-04-25T23:22:15.818Z,8.54
2023-04-25T23:24:42.588Z,8.54
2023-04-25T23:27:09.364Z,8.54
2023-04-25T23:29:37.180Z,8.55
2023-04-25T23:32:04.307Z,8.53
2023-04-25T23:34:31.867Z,8.53
2023-04-25T23:37:03.622Z,8.56
2023-04-25T23:39:33.181Z,8.57
2023-04-25T23:42:04.201Z,8.58
2023-04-25T23:44:31.829Z,8.57
2023-04-25T23:46:58.457Z,8.57
2023-04-25T23:49:25.289Z,8.54
2023-04-25T23:51:52.661Z,8.53
2023-04-25T23:54:19.654Z,8.51
2023-04-25T23:56:46.261Z,8.47
2023-04-25T23:59:12.910Z,8.46
